sensor_id;sensor_type;location;lat;lon;timestamp;P1;durP1;ratioP1;P2;durP2;ratioP2
5458;SDS011;2752;49.992;8.422;2023-01-19T00:00:23;14.77;;;6.70;;
5458;SDS011;2752;49.992;8.422;2023-01-19T00:02:49;13.80;;;6.80;;
5458;SDS011;2752;49.992;8.422;2023-01-19T00:05:17;17.43;;;8.00;;
5458;SDS011;2752;49.992;8.422;2023-01-19T00:07:45;14.13;;;7.03;;
5458;SDS011;2752;49.992;8.422;2023-01-19T00:10:11;15.47;;;7.60;;
5458;SDS011;2752;49.992;8.422;2023-01-19T00:12:38;13.87;;;7.40;;
5458;SDS011;2752;49.992;8.422;2023-01-19T00:15:05;12.47;;;6.77;;
5458;SDS011;2752;49.992;8.422;2023-01-19T00:17:32;16.47;;;6.70;;
5458;SDS011;2752;49.992;8.422;2023-01-19T00:19:59;18.73;;;7.00;;
5458;SDS011;2752;49.992;8.422;2023-01-19T00:22:26;20.53;;;7.10;;
5458;SDS011;2752;49.992;8.422;2023-01-19T00:24:54;28.33;;;8.10;;
5458;SDS011;2752;49.992;8.422;2023-01-19T00:27:20;15.90;;;6.80;;
5458;SDS011;2752;49.992;8.422;2023-01-19T00:29:47;13.37;;;6.63;;
5458;SDS011;2752;49.992;8.422;2023-01-19T00:32:14;14.67;;;6.83;;
5458;SDS011;2752;49.992;8.422;2023-01-19T00:34:41;18.63;;;8.23;;
5458;SDS011;2752;49.992;8.422;2023-01-19T00:37:13;24.27;;;8.70;;
5458;SDS011;2752;49.992;8.422;2023-01-19T00:39:40;16.97;;;8.60;;
5458;SDS011;2752;49.992;8.422;2023-01-19T00:42:08;16.87;;;8.03;;
5458;SDS011;2752;49.992;8.422;2023-01-19T00:44:54;16.27;;;7.90;;
5458;SDS011;2752;49.992;8.422;2023-01-19T00:47:21;25.20;;;8.00;;
5458;SDS011;2752;49.992;8.422;2023-01-19T00:49:48;23.80;;;10.30;;
5458;SDS011;2752;49.992;8.422;2023-01-19T00:52:14;24.13;;;9.40;;
5458;SDS011;2752;49.992;8.422;2023-01-19T00:54:41;24.20;;;9.40;;
5458;SDS011;2752;49.992;8.422;2023-01-19T00:57:09;28.40;;;9.30;;
5458;SDS011;2752;49.992;8.422;2023-01-19T00:59:36;16.40;;;8.03;;
5458;SDS011;2752;49.992;8.422;2023-01-19T01:02:02;21.40;;;8.30;;
5458;SDS011;2752;49.992;8.422;2023-01-19T01:04:29;30.07;;;7.60;;
5458;SDS011;2752;49.992;8.422;2023-01-19T01:06:56;17.50;;;7.93;;
5458;SDS011;2752;49.992;8.422;2023-01-19T01:09:22;14.47;;;7.20;;
5458;SDS011;2752;49.992;8.422;2023-01-19T01:11:49;14.97;;;7.43;;
5458;SDS011;2752;49.992;8.422;2023-01-19T01:14:17;16.70;;;8.07;;
5458;SDS011;2752;49.992;8.422;2023-01-19T01:16:44;29.67;;;7.80;;
5458;SDS011;2752;49.992;8.422;2023-01-19T01:19:11;16.10;;;7.80;;
5458;SDS011;2752;49.992;8.422;2023-01-19T01:21:37;16.40;;;8.33;;
5458;SDS011;2752;49.992;8.422;2023-01-19T01:24:04;16.00;;;7.37;;
5458;SDS011;2752;49.992;8.422;2023-01-19T01:26:31;18.03;;;8.40;;
5458;SDS011;2752;49.992;8.422;2023-01-19T01:28:58;18.80;;;8.27;;
5458;SDS011;2752;49.992;8.422;2023-01-19T01:31:27;17.43;;;7.40;;
5458;SDS011;2752;49.992;8.422;2023-01-19T01:33:54;28.40;;;7.47;;
5458;SDS011;2752;49.992;8.422;2023-01-19T01:36:21;21.00;;;7.87;;
5458;SDS011;2752;49.992;8.422;2023-01-19T01:38:48;25.33;;;7.83;;
5458;SDS011;2752;49.992;8.422;2023-01-19T01:41:14;15.50;;;7.03;;
5458;SDS011;2752;49.992;8.422;2023-01-19T01:43:42;17.07;;;7.70;;
5458;SDS011;2752;49.992;8.422;2023-01-19T01:46:11;13.27;;;6.17;;
5458;SDS011;2752;49.992;8.422;2023-01-19T01:48:41;13.00;;;6.40;;
5458;SDS011;2752;49.992;8.422;2023-01-19T01:51:15;17.17;;;7.07;;
5458;SDS011;2752;49.992;8.422;2023-01-19T01:53:51;13.23;;;6.47;;
5458;SDS011;2752;49.992;8.422;2023-01-19T01:56:23;14.07;;;6.63;;
5458;SDS011;2752;49.992;8.422;2023-01-19T01:58:55;17.47;;;7.17;;
5458;SDS011;2752;49.992;8.422;2023-01-19T02:01:23;12.47;;;6.47;;
5458;SDS011;2752;49.992;8.422;2023-01-19T02:04:09;21.17;;;8.10;;
5458;SDS011;2752;49.992;8.422;2023-01-19T02:06:36;16.60;;;7.00;;
5458;SDS011;2752;49.992;8.422;2023-01-19T02:09:20;15.87;;;7.67;;
5458;SDS011;2752;49.992;8.422;2023-01-19T02:12:06;14.90;;;6.93;;
5458;SDS011;2752;49.992;8.422;2023-01-19T02:14:51;13.70;;;6.37;;
5458;SDS011;2752;49.992;8.422;2023-01-19T02:17:19;13.07;;;7.47;;
5458;SDS011;2752;49.992;8.422;2023-01-19T02:19:48;13.47;;;6.60;;
5458;SDS011;2752;49.992;8.422;2023-01-19T02:22:15;25.57;;;7.03;;
5458;SDS011;2752;49.992;8.422;2023-01-19T02:24:49;13.53;;;7.80;;
5458;SDS011;2752;49.992;8.422;2023-01-19T02:27:17;18.03;;;6.80;;
5458;SDS011;2752;49.992;8.422;2023-01-19T02:29:44;13.20;;;6.40;;
5458;SDS011;2752;49.992;8.422;2023-01-19T02:32:10;17.83;;;7.37;;
5458;SDS011;2752;49.992;8.422;2023-01-19T02:34:37;13.17;;;6.70;;
5458;SDS011;2752;49.992;8.422;2023-01-19T02:37:05;16.10;;;7.20;;
5458;SDS011;2752;49.992;8.422;2023-01-19T02:39:35;12.53;;;6.80;;
5458;SDS011;2752;49.992;8.422;2023-01-19T02:42:07;14.20;;;7.50;;
5458;SDS011;2752;49.992;8.422;2023-01-19T02:44:37;19.20;;;7.47;;
5458;SDS011;2752;49.992;8.422;2023-01-19T02:47:05;14.90;;;7.67;;
5458;SDS011;2752;49.992;8.422;2023-01-19T02:49:32;13.67;;;6.97;;
5458;SDS011;2752;49.992;8.422;2023-01-19T02:52:00;14.70;;;7.67;;
5458;SDS011;2752;49.992;8.422;2023-01-19T02:54:33;16.97;;;7.90;;
5458;SDS011;2752;49.992;8.422;2023-01-19T02:57:13;14.90;;;7.50;;
5458;SDS011;2752;49.992;8.422;2023-01-19T02:59:52;17.20;;;7.33;;
5458;SDS011;2752;49.992;8.422;2023-01-19T03:02:33;18.43;;;7.13;;
5458;SDS011;2752;49.992;8.422;2023-01-19T03:05:10;16.27;;;7.83;;
5458;SDS011;2752;49.992;8.422;2023-01-19T03:07:48;18.90;;;8.40;;
5458;SDS011;2752;49.992;8.422;2023-01-19T03:10:19;12.87;;;6.60;;
5458;SDS011;2752;49.992;8.422;2023-01-19T03:12:56;18.30;;;8.40;;
5458;SDS011;2752;49.992;8.422;2023-01-19T03:15:28;18.40;;;7.83;;
5458;SDS011;2752;49.992;8.422;2023-01-19T03:17:59;14.90;;;7.60;;
5458;SDS011;2752;49.992;8.422;2023-01-19T03:20:31;22.07;;;8.43;;
5458;SDS011;2752;49.992;8.422;2023-01-19T03:22:59;15.30;;;6.70;;
5458;SDS011;2752;49.992;8.422;2023-01-19T03:25:28;21.20;;;8.80;;
5458;SDS011;2752;49.992;8.422;2023-01-19T03:28:00;20.40;;;8.73;;
5458;SDS011;2752;49.992;8.422;2023-01-19T03:30:29;16.53;;;7.43;;
5458;SDS011;2752;49.992;8.422;2023-01-19T03:32:59;16.43;;;7.47;;
5458;SDS011;2752;49.992;8.422;2023-01-19T03:35:31;16.13;;;6.77;;
5458;SDS011;2752;49.992;8.422;2023-01-19T03:38:01;17.17;;;8.10;;
5458;SDS011;2752;49.992;8.422;2023-01-19T03:40:32;20.03;;;8.33;;
5458;SDS011;2752;49.992;8.422;2023-01-19T03:43:02;17.10;;;7.70;;
5458;SDS011;2752;49.992;8.422;2023-01-19T03:45:30;12.90;;;6.50;;
5458;SDS011;2752;49.992;8.422;2023-01-19T03:47:59;15.07;;;6.93;;
5458;SDS011;2752;49.992;8.422;2023-01-19T03:50:28;19.17;;;8.70;;
5458;SDS011;2752;49.992;8.422;2023-01-19T03:52:59;11.90;;;7.90;;
5458;SDS011;2752;49.992;8.422;2023-01-19T03:55:27;20.63;;;7.43;;
5458;SDS011;2752;49.992;8.422;2023-01-19T03:57:54;16.63;;;7.90;;
5458;SDS011;2752;49.992;8.422;2023-01-19T04:00:22;17.73;;;7.90;;
5458;SDS011;2752;49.992;8.422;2023-01-19T04:02:49;20.37;;;9.00;;
5458;SDS011;2752;49.992;8.422;2023-01-19T04:05:16;22.80;;;9.60;;
5458;SDS011;2752;49.992;8.422;2023-01-19T04:07:43;18.17;;;7.60;;
5458;SDS011;2752;49.992;8.422;2023-01-19T04:10:10;18.23;;;8.60;;
5458;SDS011;2752;49.992;8.422;2023-01-19T04:12:36;18.47;;;8.70;;
5458;SDS011;2752;49.992;8.422;2023-01-19T04:15:04;25.80;;;8.87;;
5458;SDS011;2752;49.992;8.422;2023-01-19T04:17:33;16.07;;;8.47;;
5458;SDS011;2752;49.992;8.422;2023-01-19T04:20:00;16.40;;;7.57;;
5458;SDS011;2752;49.992;8.422;2023-01-19T04:22:26;25.40;;;8.23;;
5458;SDS011;2752;49.992;8.422;2023-01-19T04:24:53;17.97;;;8.80;;
5458;SDS011;2752;49.992;8.422;2023-01-19T04:27:20;17.70;;;8.40;;
5458;SDS011;2752;49.992;8.422;2023-01-19T04:29:47;19.33;;;8.60;;
5458;SDS011;2752;49.992;8.422;2023-01-19T04:32:14;22.00;;;8.67;;
5458;SDS011;2752;49.992;8.422;2023-01-19T04:34:42;16.80;;;8.40;;
5458;SDS011;2752;49.992;8.422;2023-01-19T04:37:09;15.90;;;8.70;;
5458;SDS011;2752;49.992;8.422;2023-01-19T04:39:36;16.37;;;8.20;;
5458;SDS011;2752;49.992;8.422;2023-01-19T04:42:03;23.00;;;10.20;;
5458;SDS011;2752;49.992;8.422;2023-01-19T04:44:30;18.57;;;8.33;;
5458;SDS011;2752;49.992;8.422;2023-01-19T04:46:56;21.33;;;8.50;;
5458;SDS011;2752;49.992;8.422;2023-01-19T04:49:23;25.50;;;9.27;;
5458;SDS011;2752;49.992;8.422;2023-01-19T04:51:52;16.27;;;9.70;;
5458;SDS011;2752;49.992;8.422;2023-01-19T04:54:19;18.57;;;9.23;;
5458;SDS011;2752;49.992;8.422;2023-01-19T04:56:45;23.80;;;9.47;;
5458;SDS011;2752;49.992;8.422;2023-01-19T04:59:13;25.67;;;9.10;;
5458;SDS011;2752;49.992;8.422;2023-01-19T05:01:40;18.93;;;9.77;;
5458;SDS011;2752;49.992;8.422;2023-01-19T05:04:07;20.77;;;9.90;;
5458;SDS011;2752;49.992;8.422;2023-01-19T05:06:34;22.80;;;9.60;;
5458;SDS011;2752;49.992;8.422;2023-01-19T05:09:02;24.13;;;10.20;;
5458;SDS011;2752;49.992;8.422;2023-01-19T05:11:31;22.20;;;9.10;;
5458;SDS011;2752;49.992;8.422;2023-01-19T05:13:58;24.37;;;8.80;;
5458;SDS011;2752;49.992;8.422;2023-01-19T05:16:25;21.50;;;10.57;;
5458;SDS011;2752;49.992;8.422;2023-01-19T05:18:52;29.73;;;11.07;;
5458;SDS011;2752;49.992;8.422;2023-01-19T05:21:18;23.23;;;10.47;;
5458;SDS011;2752;49.992;8.422;2023-01-19T05:23:45;23.53;;;10.37;;
5458;SDS011;2752;49.992;8.422;2023-01-19T05:26:13;22.57;;;10.27;;
5458;SDS011;2752;49.992;8.422;2023-01-19T05:28:39;20.90;;;9.90;;
5458;SDS011;2752;49.992;8.422;2023-01-19T05:31:06;26.10;;;10.60;;
5458;SDS011;2752;49.992;8.422;2023-01-19T05:33:33;25.63;;;11.30;;
5458;SDS011;2752;49.992;8.422;2023-01-19T05:35:59;26.30;;;10.50;;
5458;SDS011;2752;49.992;8.422;2023-01-19T05:38:26;25.40;;;10.23;;
5458;SDS011;2752;49.992;8.422;2023-01-19T05:40:55;21.73;;;10.30;;
5458;SDS011;2752;49.992;8.422;2023-01-19T05:43:24;26.00;;;11.07;;
5458;SDS011;2752;49.992;8.422;2023-01-19T05:45:50;22.13;;;10.57;;
5458;SDS011;2752;49.992;8.422;2023-01-19T05:48:17;21.47;;;10.40;;
5458;SDS011;2752;49.992;8.422;2023-01-19T05:50:44;23.67;;;11.30;;
5458;SDS011;2752;49.992;8.422;2023-01-19T05:53:13;20.20;;;11.07;;
5458;SDS011;2752;49.992;8.422;2023-01-19T05:55:40;24.17;;;11.43;;
5458;SDS011;2752;49.992;8.422;2023-01-19T05:58:06;26.70;;;10.77;;
5458;SDS011;2752;49.992;8.422;2023-01-19T06:00:35;26.83;;;10.90;;
5458;SDS011;2752;49.992;8.422;2023-01-19T06:03:01;32.60;;;11.43;;
5458;SDS011;2752;49.992;8.422;2023-01-19T06:05:30;24.03;;;11.20;;
5458;SDS011;2752;49.992;8.422;2023-01-19T06:07:57;19.30;;;10.77;;
5458;SDS011;2752;49.992;8.422;2023-01-19T06:10:23;21.23;;;11.73;;
5458;SDS011;2752;49.992;8.422;2023-01-19T06:12:50;30.07;;;11.57;;
5458;SDS011;2752;49.992;8.422;2023-01-19T06:15:17;23.80;;;10.93;;
5458;SDS011;2752;49.992;8.422;2023-01-19T06:17:45;27.43;;;12.03;;
5458;SDS011;2752;49.992;8.422;2023-01-19T06:20:12;19.57;;;10.20;;
5458;SDS011;2752;49.992;8.422;2023-01-19T06:22:39;23.30;;;11.30;;
5458;SDS011;2752;49.992;8.422;2023-01-19T06:25:05;23.47;;;12.20;;
5458;SDS011;2752;49.992;8.422;2023-01-19T06:27:33;32.73;;;12.30;;
5458;SDS011;2752;49.992;8.422;2023-01-19T06:30:00;21.40;;;10.93;;
5458;SDS011;2752;49.992;8.422;2023-01-19T06:32:27;29.13;;;12.30;;
5458;SDS011;2752;49.992;8.422;2023-01-19T06:34:56;24.70;;;11.70;;
5458;SDS011;2752;49.992;8.422;2023-01-19T06:37:22;33.33;;;12.47;;
5458;SDS011;2752;49.992;8.422;2023-01-19T06:39:51;20.10;;;10.47;;
5458;SDS011;2752;49.992;8.422;2023-01-19T06:42:17;20.60;;;11.20;;
5458;SDS011;2752;49.992;8.422;2023-01-19T06:44:44;19.93;;;10.70;;
5458;SDS011;2752;49.992;8.422;2023-01-19T06:47:12;31.53;;;9.87;;
5458;SDS011;2752;49.992;8.422;2023-01-19T06:49:39;25.60;;;12.70;;
5458;SDS011;2752;49.992;8.422;2023-01-19T06:52:07;24.50;;;10.57;;
5458;SDS011;2752;49.992;8.422;2023-01-19T06:54:35;19.93;;;9.47;;
5458;SDS011;2752;49.992;8.422;2023-01-19T06:57:02;25.70;;;10.63;;
5458;SDS011;2752;49.992;8.422;2023-01-19T06:59:28;19.83;;;9.50;;
5458;SDS011;2752;49.992;8.422;2023-01-19T07:01:55;19.67;;;10.30;;
5458;SDS011;2752;49.992;8.422;2023-01-19T07:04:22;23.37;;;10.53;;
5458;SDS011;2752;49.992;8.422;2023-01-19T07:06:50;28.77;;;10.13;;
5458;SDS011;2752;49.992;8.422;2023-01-19T07:09:18;19.00;;;9.87;;
5458;SDS011;2752;49.992;8.422;2023-01-19T07:11:45;21.03;;;10.30;;
5458;SDS011;2752;49.992;8.422;2023-01-19T07:14:12;27.93;;;11.30;;
5458;SDS011;2752;49.992;8.422;2023-01-19T07:16:38;24.70;;;9.20;;
5458;SDS011;2752;49.992;8.422;2023-01-19T07:19:05;21.33;;;10.43;;
5458;SDS011;2752;49.992;8.422;2023-01-19T07:21:34;25.40;;;10.43;;
5458;SDS011;2752;49.992;8.422;2023-01-19T07:24:01;19.70;;;10.00;;
5458;SDS011;2752;49.992;8.422;2023-01-19T07:26:29;37.90;;;14.10;;
5458;SDS011;2752;49.992;8.422;2023-01-19T07:28:56;30.10;;;12.97;;
5458;SDS011;2752;49.992;8.422;2023-01-19T07:31:22;20.77;;;9.60;;
5458;SDS011;2752;49.992;8.422;2023-01-19T07:33:49;20.50;;;11.40;;
5458;SDS011;2752;49.992;8.422;2023-01-19T07:36:15;18.10;;;9.47;;
5458;SDS011;2752;49.992;8.422;2023-01-19T07:38:42;23.37;;;9.47;;
5458;SDS011;2752;49.992;8.422;2023-01-19T07:41:09;22.23;;;8.80;;
5458;SDS011;2752;49.992;8.422;2023-01-19T07:43:37;16.00;;;8.63;;
5458;SDS011;2752;49.992;8.422;2023-01-19T07:46:04;18.77;;;9.10;;
5458;SDS011;2752;49.992;8.422;2023-01-19T07:48:32;27.03;;;12.27;;
5458;SDS011;2752;49.992;8.422;2023-01-19T07:50:59;24.90;;;11.60;;
5458;SDS011;2752;49.992;8.422;2023-01-19T07:53:29;24.30;;;11.20;;
5458;SDS011;2752;49.992;8.422;2023-01-19T07:55:56;19.80;;;9.20;;
5458;SDS011;2752;49.992;8.422;2023-01-19T07:58:23;17.27;;;9.67;;
5458;SDS011;2752;49.992;8.422;2023-01-19T08:00:51;18.00;;;9.40;;
5458;SDS011;2752;49.992;8.422;2023-01-19T08:03:18;16.60;;;9.50;;
5458;SDS011;2752;49.992;8.422;2023-01-19T08:05:48;16.47;;;9.33;;
5458;SDS011;2752;49.992;8.422;2023-01-19T08:08:15;23.70;;;10.00;;
5458;SDS011;2752;49.992;8.422;2023-01-19T08:10:42;17.27;;;9.23;;
5458;SDS011;2752;49.992;8.422;2023-01-19T08:13:09;20.40;;;10.57;;
5458;SDS011;2752;49.992;8.422;2023-01-19T08:15:36;15.83;;;9.03;;
5458;SDS011;2752;49.992;8.422;2023-01-19T08:18:04;19.87;;;9.90;;
5458;SDS011;2752;49.992;8.422;2023-01-19T08:20:33;23.50;;;9.93;;
5458;SDS011;2752;49.992;8.422;2023-01-19T08:23:00;21.53;;;9.57;;
5458;SDS011;2752;49.992;8.422;2023-01-19T08:25:30;21.00;;;8.93;;
5458;SDS011;2752;49.992;8.422;2023-01-19T08:27:58;22.90;;;11.40;;
5458;SDS011;2752;49.992;8.422;2023-01-19T08:30:25;19.50;;;10.10;;
5458;SDS011;2752;49.992;8.422;2023-01-19T08:32:52;24.40;;;11.77;;
5458;SDS011;2752;49.992;8.422;2023-01-19T08:35:20;26.50;;;11.30;;
5458;SDS011;2752;49.992;8.422;2023-01-19T08:37:47;27.90;;;11.40;;
5458;SDS011;2752;49.992;8.422;2023-01-19T08:40:15;26.13;;;12.57;;
5458;SDS011;2752;49.992;8.422;2023-01-19T08:42:42;21.73;;;11.00;;
5458;SDS011;2752;49.992;8.422;2023-01-19T08:45:09;25.37;;;11.60;;
5458;SDS011;2752;49.992;8.422;2023-01-19T08:47:36;22.30;;;11.50;;
5458;SDS011;2752;49.992;8.422;2023-01-19T08:50:02;25.53;;;10.97;;
5458;SDS011;2752;49.992;8.422;2023-01-19T08:52:30;23.67;;;11.10;;
5458;SDS011;2752;49.992;8.422;2023-01-19T08:54:57;19.00;;;10.87;;
5458;SDS011;2752;49.992;8.422;2023-01-19T08:57:25;21.43;;;10.60;;
5458;SDS011;2752;49.992;8.422;2023-01-19T08:59:52;23.20;;;11.27;;
5458;SDS011;2752;49.992;8.422;2023-01-19T09:02:18;27.20;;;10.57;;
5458;SDS011;2752;49.992;8.422;2023-01-19T09:04:45;19.77;;;10.10;;
5458;SDS011;2752;49.992;8.422;2023-01-19T09:07:12;27.47;;;11.13;;
5458;SDS011;2752;49.992;8.422;2023-01-19T09:09:40;17.97;;;9.57;;
5458;SDS011;2752;49.992;8.422;2023-01-19T09:12:08;19.80;;;10.07;;
5458;SDS011;2752;49.992;8.422;2023-01-19T09:14:34;26.27;;;10.70;;
5458;SDS011;2752;49.992;8.422;2023-01-19T09:17:01;31.53;;;10.60;;
5458;SDS011;2752;49.992;8.422;2023-01-19T09:19:28;22.03;;;11.23;;
5458;SDS011;2752;49.992;8.422;2023-01-19T09:21:54;24.67;;;10.83;;
5458;SDS011;2752;49.992;8.422;2023-01-19T09:24:23;26.20;;;12.40;;
5458;SDS011;2752;49.992;8.422;2023-01-19T09:26:51;23.53;;;10.60;;
5458;SDS011;2752;49.992;8.422;2023-01-19T09:29:17;25.60;;;11.43;;
5458;SDS011;2752;49.992;8.422;2023-01-19T09:31:44;20.63;;;10.13;;
5458;SDS011;2752;49.992;8.422;2023-01-19T09:34:11;29.80;;;12.20;;
5458;SDS011;2752;49.992;8.422;2023-01-19T09:36:37;25.83;;;11.17;;
5458;SDS011;2752;49.992;8.422;2023-01-19T09:39:04;24.03;;;10.97;;
5458;SDS011;2752;49.992;8.422;2023-01-19T09:41:31;25.13;;;10.50;;
5458;SDS011;2752;49.992;8.422;2023-01-19T09:44:01;20.37;;;10.40;;
5458;SDS011;2752;49.992;8.422;2023-01-19T09:46:32;18.70;;;10.23;;
5458;SDS011;2752;49.992;8.422;2023-01-19T09:49:02;22.20;;;11.50;;
5458;SDS011;2752;49.992;8.422;2023-01-19T09:51:36;24.17;;;10.70;;
5458;SDS011;2752;49.992;8.422;2023-01-19T09:54:09;19.40;;;8.93;;
5458;SDS011;2752;49.992;8.422;2023-01-19T09:56:38;18.90;;;10.03;;
5458;SDS011;2752;49.992;8.422;2023-01-19T09:59:16;15.73;;;8.00;;
5458;SDS011;2752;49.992;8.422;2023-01-19T10:01:49;22.03;;;9.60;;
5458;SDS011;2752;49.992;8.422;2023-01-19T10:04:31;14.83;;;8.47;;
5458;SDS011;2752;49.992;8.422;2023-01-19T10:07:09;13.57;;;8.27;;
5458;SDS011;2752;49.992;8.422;2023-01-19T10:09:47;14.80;;;7.90;;
5458;SDS011;2752;49.992;8.422;2023-01-19T10:12:25;12.10;;;6.53;;
5458;SDS011;2752;49.992;8.422;2023-01-19T10:15:09;11.10;;;6.20;;
5458;SDS011;2752;49.992;8.422;2023-01-19T10:17:43;11.17;;;6.10;;
5458;SDS011;2752;49.992;8.422;2023-01-19T10:20:18;12.30;;;7.43;;
5458;SDS011;2752;49.992;8.422;2023-01-19T10:22:50;13.57;;;6.40;;
5458;SDS011;2752;49.992;8.422;2023-01-19T10:25:18;12.97;;;7.27;;
5458;SDS011;2752;49.992;8.422;2023-01-19T10:27:47;17.40;;;7.03;;
5458;SDS011;2752;49.992;8.422;2023-01-19T10:30:17;12.63;;;6.57;;
5458;SDS011;2752;49.992;8.422;2023-01-19T10:32:47;10.70;;;4.97;;
5458;SDS011;2752;49.992;8.422;2023-01-19T10:35:15;9.80;;;5.00;;
5458;SDS011;2752;49.992;8.422;2023-01-19T10:37:48;15.63;;;5.90;;
5458;SDS011;2752;49.992;8.422;2023-01-19T10:40:18;9.90;;;4.80;;
5458;SDS011;2752;49.992;8.422;2023-01-19T10:42:52;9.10;;;4.20;;
5458;SDS011;2752;49.992;8.422;2023-01-19T10:45:23;9.50;;;4.90;;
5458;SDS011;2752;49.992;8.422;2023-01-19T10:47:53;8.97;;;4.93;;
5458;SDS011;2752;49.992;8.422;2023-01-19T10:50:23;8.20;;;4.50;;
5458;SDS011;2752;49.992;8.422;2023-01-19T10:52:52;5.80;;;3.87;;
5458;SDS011;2752;49.992;8.422;2023-01-19T10:55:23;8.40;;;4.20;;
5458;SDS011;2752;49.992;8.422;2023-01-19T10:57:53;6.87;;;4.83;;
5458;SDS011;2752;49.992;8.422;2023-01-19T11:00:29;10.17;;;4.33;;
5458;SDS011;2752;49.992;8.422;2023-01-19T11:02:58;10.93;;;4.83;;
5458;SDS011;2752;49.992;8.422;2023-01-19T11:05:26;11.90;;;5.63;;
5458;SDS011;2752;49.992;8.422;2023-01-19T11:07:54;11.47;;;6.00;;
5458;SDS011;2752;49.992;8.422;2023-01-19T11:10:21;6.73;;;3.60;;
5458;SDS011;2752;49.992;8.422;2023-01-19T11:12:57;12.27;;;5.27;;
5458;SDS011;2752;49.992;8.422;2023-01-19T11:15:31;8.90;;;4.47;;
5458;SDS011;2752;49.992;8.422;2023-01-19T11:18:00;9.40;;;4.53;;
5458;SDS011;2752;49.992;8.422;2023-01-19T11:20:29;9.73;;;5.30;;
5458;SDS011;2752;49.992;8.422;2023-01-19T11:23:15;7.00;;;4.23;;
5458;SDS011;2752;49.992;8.422;2023-01-19T11:25:47;12.23;;;4.90;;
5458;SDS011;2752;49.992;8.422;2023-01-19T11:28:16;12.83;;;6.10;;
5458;SDS011;2752;49.992;8.422;2023-01-19T11:30:54;7.63;;;4.50;;
5458;SDS011;2752;49.992;8.422;2023-01-19T11:33:22;8.63;;;5.07;;
5458;SDS011;2752;49.992;8.422;2023-01-19T11:35:50;7.97;;;4.00;;
5458;SDS011;2752;49.992;8.422;2023-01-19T11:38:27;8.50;;;4.03;;
5458;SDS011;2752;49.992;8.422;2023-01-19T11:40:54;16.77;;;4.37;;
5458;SDS011;2752;49.992;8.422;2023-01-19T11:43:23;6.50;;;4.10;;
5458;SDS011;2752;49.992;8.422;2023-01-19T11:45:54;6.43;;;3.60;;
5458;SDS011;2752;49.992;8.422;2023-01-19T11:48:24;6.53;;;3.40;;
5458;SDS011;2752;49.992;8.422;2023-01-19T11:50:57;7.97;;;4.00;;
5458;SDS011;2752;49.992;8.422;2023-01-19T11:53:29;6.67;;;4.07;;
5458;SDS011;2752;49.992;8.422;2023-01-19T11:55:59;6.90;;;4.30;;
5458;SDS011;2752;49.992;8.422;2023-01-19T11:58:28;9.97;;;4.40;;
5458;SDS011;2752;49.992;8.422;2023-01-19T12:00:59;4.30;;;2.90;;
5458;SDS011;2752;49.992;8.422;2023-01-19T12:03:30;7.77;;;4.13;;
5458;SDS011;2752;49.992;8.422;2023-01-19T12:05:59;8.70;;;2.93;;
5458;SDS011;2752;49.992;8.422;2023-01-19T12:08:32;10.97;;;4.33;;
5458;SDS011;2752;49.992;8.422;2023-01-19T12:11:02;9.87;;;4.20;;
5458;SDS011;2752;49.992;8.422;2023-01-19T12:13:30;7.00;;;3.70;;
5458;SDS011;2752;49.992;8.422;2023-01-19T12:16:00;5.17;;;3.27;;
5458;SDS011;2752;49.992;8.422;2023-01-19T12:18:32;5.10;;;2.60;;
5458;SDS011;2752;49.992;8.422;2023-01-19T12:21:03;5.43;;;3.53;;
5458;SDS011;2752;49.992;8.422;2023-01-19T12:23:33;4.77;;;2.57;;
5458;SDS011;2752;49.992;8.422;2023-01-19T12:26:16;7.90;;;3.83;;
5458;SDS011;2752;49.992;8.422;2023-01-19T12:28:52;8.93;;;3.80;;
5458;SDS011;2752;49.992;8.422;2023-01-19T12:31:24;7.80;;;3.30;;
5458;SDS011;2752;49.992;8.422;2023-01-19T12:33:51;6.97;;;2.90;;
5458;SDS011;2752;49.992;8.422;2023-01-19T12:36:33;9.50;;;3.80;;
5458;SDS011;2752;49.992;8.422;2023-01-19T12:39:02;6.50;;;2.53;;
5458;SDS011;2752;49.992;8.422;2023-01-19T12:41:30;9.10;;;3.00;;
5458;SDS011;2752;49.992;8.422;2023-01-19T12:46:54;9.53;;;2.67;;
5458;SDS011;2752;49.992;8.422;2023-01-19T12:49:28;13.00;;;3.20;;
5458;SDS011;2752;49.992;8.422;2023-01-19T12:52:10;3.73;;;3.03;;
5458;SDS011;2752;49.992;8.422;2023-01-19T12:54:52;6.70;;;3.63;;
5458;SDS011;2752;49.992;8.422;2023-01-19T12:57:24;5.80;;;3.00;;
5458;SDS011;2752;49.992;8.422;2023-01-19T12:59:54;6.40;;;3.67;;
5458;SDS011;2752;49.992;8.422;2023-01-19T13:05:21;5.07;;;3.47;;
5458;SDS011;2752;49.992;8.422;2023-01-19T13:13:42;5.00;;;3.10;;
5458;SDS011;2752;49.992;8.422;2023-01-19T13:19:36;10.40;;;4.03;;
5458;SDS011;2752;49.992;8.422;2023-01-19T13:25:20;11.73;;;4.00;;
5458;SDS011;2752;49.992;8.422;2023-01-19T13:27:53;9.10;;;4.87;;
5458;SDS011;2752;49.992;8.422;2023-01-19T13:30:21;6.67;;;4.07;;
5458;SDS011;2752;49.992;8.422;2023-01-19T13:32:51;8.57;;;4.40;;
5458;SDS011;2752;49.992;8.422;2023-01-19T13:35:20;7.03;;;4.17;;
5458;SDS011;2752;49.992;8.422;2023-01-19T13:37:48;7.90;;;4.50;;
5458;SDS011;2752;49.992;8.422;2023-01-19T13:40:17;9.13;;;4.57;;
5458;SDS011;2752;49.992;8.422;2023-01-19T13:42:47;11.57;;;5.90;;
5458;SDS011;2752;49.992;8.422;2023-01-19T13:45:16;10.13;;;5.23;;
5458;SDS011;2752;49.992;8.422;2023-01-19T13:47:52;9.00;;;4.43;;
5458;SDS011;2752;49.992;8.422;2023-01-19T13:50:24;12.80;;;4.50;;
5458;SDS011;2752;49.992;8.422;2023-01-19T13:52:52;8.20;;;5.20;;
5458;SDS011;2752;49.992;8.422;2023-01-19T13:55:21;10.30;;;5.93;;
5458;SDS011;2752;49.992;8.422;2023-01-19T13:57:48;10.67;;;5.67;;
5458;SDS011;2752;49.992;8.422;2023-01-19T14:00:17;7.97;;;4.60;;
5458;SDS011;2752;49.992;8.422;2023-01-19T14:02:52;9.93;;;4.70;;
5458;SDS011;2752;49.992;8.422;2023-01-19T14:05:23;13.77;;;5.20;;
5458;SDS011;2752;49.992;8.422;2023-01-19T14:08:01;9.30;;;4.60;;
5458;SDS011;2752;49.992;8.422;2023-01-19T14:10:30;7.43;;;4.43;;
5458;SDS011;2752;49.992;8.422;2023-01-19T14:12:58;12.77;;;4.40;;
5458;SDS011;2752;49.992;8.422;2023-01-19T14:15:25;8.47;;;4.57;;
5458;SDS011;2752;49.992;8.422;2023-01-19T14:18:08;8.80;;;4.73;;
5458;SDS011;2752;49.992;8.422;2023-01-19T14:20:38;15.13;;;5.73;;
5458;SDS011;2752;49.992;8.422;2023-01-19T14:23:05;14.13;;;5.57;;
5458;SDS011;2752;49.992;8.422;2023-01-19T14:25:52;13.33;;;5.60;;
5458;SDS011;2752;49.992;8.422;2023-01-19T14:28:25;11.40;;;6.07;;
5458;SDS011;2752;49.992;8.422;2023-01-19T14:30:53;9.83;;;5.60;;
5458;SDS011;2752;49.992;8.422;2023-01-19T14:33:34;11.53;;;5.40;;
5458;SDS011;2752;49.992;8.422;2023-01-19T14:36:19;12.17;;;6.17;;
5458;SDS011;2752;49.992;8.422;2023-01-19T14:38:54;13.27;;;5.77;;
5458;SDS011;2752;49.992;8.422;2023-01-19T14:41:23;13.20;;;6.07;;
5458;SDS011;2752;49.992;8.422;2023-01-19T14:43:54;9.50;;;4.27;;
5458;SDS011;2752;49.992;8.422;2023-01-19T14:46:21;12.20;;;5.53;;
5458;SDS011;2752;49.992;8.422;2023-01-19T14:48:50;16.40;;;5.47;;
5458;SDS011;2752;49.992;8.422;2023-01-19T14:51:21;13.47;;;5.60;;
5458;SDS011;2752;49.992;8.422;2023-01-19T14:53:51;13.10;;;6.53;;
5458;SDS011;2752;49.992;8.422;2023-01-19T14:56:23;10.13;;;5.17;;
5458;SDS011;2752;49.992;8.422;2023-01-19T14:58:51;10.20;;;5.70;;
5458;SDS011;2752;49.992;8.422;2023-01-19T15:01:19;7.63;;;4.87;;
5458;SDS011;2752;49.992;8.422;2023-01-19T15:03:46;10.20;;;4.83;;
5458;SDS011;2752;49.992;8.422;2023-01-19T15:06:14;7.70;;;4.50;;
5458;SDS011;2752;49.992;8.422;2023-01-19T15:08:43;9.23;;;4.13;;
5458;SDS011;2752;49.992;8.422;2023-01-19T15:11:11;7.90;;;4.23;;
5458;SDS011;2752;49.992;8.422;2023-01-19T15:13:46;7.30;;;3.60;;
5458;SDS011;2752;49.992;8.422;2023-01-19T15:16:14;12.27;;;4.10;;
5458;SDS011;2752;49.992;8.422;2023-01-19T15:18:40;8.60;;;3.40;;
5458;SDS011;2752;49.992;8.422;2023-01-19T15:21:08;13.47;;;5.10;;
5458;SDS011;2752;49.992;8.422;2023-01-19T15:23:37;14.83;;;5.63;;
5458;SDS011;2752;49.992;8.422;2023-01-19T15:26:06;14.40;;;6.00;;
5458;SDS011;2752;49.992;8.422;2023-01-19T15:28:37;7.80;;;5.07;;
5458;SDS011;2752;49.992;8.422;2023-01-19T15:31:04;11.10;;;5.37;;